createdAt,value
2023-04-29T00:00:09.855Z,100678.34
2023-04-29T00:02:38.346Z,100683.38
2023-04-29T00:05:07.302Z,100672.53
2023-04-29T00:07:36.482Z,100686.03
2023-04-29T00:10:04.719Z,100679.44
2023-04-29T00:12:33.457Z,100681.53
2023-04-29T00:15:03.012Z,100692.00
2023-04-29T00:17:32.215Z,100650.53
2023-04-29T00:19:59.934Z,100635.38
2023-04-29T00:22:27.965Z,100639.91
2023-04-29T00:24:55.707Z,100635.94
2023-04-29T00:27:23.420Z,100633.81
2023-04-29T00:29:51.261Z,100637.78
2023-04-29T00:32:19.120Z,100620.09
2023-04-29T00:34:48.433Z,100628.22
2023-04-29T00:37:16.328Z,100635.88
2023-04-29T00:39:44.073Z,100609.72
2023-04-29T00:42:12.822Z,100594.78
2023-04-29T00:44:40.918Z,100603.09
2023-04-29T00:47:11.430Z,100610.94
2023-04-29T00:49:39.784Z,100637.94
2023-04-29T00:52:09.207Z,100610.78
2023-04-29T00:54:38.082Z,100599.59
2023-04-29T00:57:07.258Z,100574.56
2023-04-29T00:59:35.056Z,100561.13
2023-04-29T01:02:04.017Z,100543.53
2023-04-29T01:04:31.960Z,100541.63
2023-04-29T01:07:06.332Z,100524.16
2023-04-29T01:09:48.948Z,100540.19
2023-04-29T01:12:22.777Z,100550.63
2023-04-29T01:15:02.834Z,100538.78
2023-04-29T01:17:37.454Z,100540.28
2023-04-29T01:20:07.891Z,100534.91
2023-04-29T01:22:35.641Z,100528.00
2023-04-29T01:25:05.939Z,100509.25
2023-04-29T01:27:38.534Z,100514.09
2023-04-29T01:30:17.615Z,100516.56
2023-04-29T01:32:54.647Z,100504.63
2023-04-29T01:35:35.203Z,100504.22
2023-04-29T01:38:14.955Z,100509.91
2023-04-29T01:40:49.974Z,100511.59
2023-04-29T01:43:19.381Z,100506.81
2023-04-29T01:45:47.198Z,100505.53
2023-04-29T01:48:15.807Z,100509.91
2023-04-29T01:50:43.859Z,100511.28
2023-04-29T01:53:11.579Z,100503.25
2023-04-29T01:55:39.326Z,100529.16
2023-04-29T01:58:08.562Z,100511.38
2023-04-29T02:00:36.500Z,100520.91
2023-04-29T02:03:04.274Z,100515.88
2023-04-29T02:05:34.044Z,100514.81
2023-04-29T02:08:02.678Z,100519.94
2023-04-29T02:10:30.867Z,100516.72
2023-04-29T02:12:58.611Z,100497.31
2023-04-29T02:15:29.420Z,100510.69
2023-04-29T02:17:57.154Z,100518.22
2023-04-29T02:20:24.887Z,100519.25
2023-04-29T02:22:52.631Z,100517.53
2023-04-29T02:25:20.384Z,100530.91
2023-04-29T02:27:48.096Z,100528.19
2023-04-29T02:30:15.858Z,100530.31
2023-04-29T02:32:44.970Z,100529.16
2023-04-29T02:35:12.743Z,100526.84
2023-04-29T02:37:40.466Z,100528.50
2023-04-29T02:40:09.493Z,100534.16
2023-04-29T02:42:37.988Z,100552.19
2023-04-29T02:45:06.696Z,100522.72
2023-04-29T02:47:34.467Z,100535.19
2023-04-29T02:50:04.762Z,100534.59
2023-04-29T02:52:32.607Z,100533.69
2023-04-29T02:55:00.306Z,100537.31
2023-04-29T02:57:29.602Z,100529.88
2023-04-29T02:59:57.444Z,100528.69
2023-04-29T03:02:25.306Z,100526.44
2023-04-29T03:04:53.367Z,100531.97
2023-04-29T03:07:22.675Z,100538.22
2023-04-29T03:09:50.709Z,100533.09
2023-04-29T03:12:18.568Z,100536.81
2023-04-29T03:14:46.269Z,100532.94
2023-04-29T03:17:14.130Z,100527.19
2023-04-29T03:19:41.978Z,100542.03
2023-04-29T03:22:10.600Z,100529.66
2023-04-29T03:24:39.853Z,100549.00
2023-04-29T03:27:07.579Z,100538.69
2023-04-29T03:29:35.328Z,100530.50
2023-04-29T03:32:03.111Z,100538.81
2023-04-29T03:34:31.315Z,100541.06
2023-04-29T03:36:59.073Z,100546.50
2023-04-29T03:39:28.238Z,100542.16
2023-04-29T03:41:57.326Z,100551.06
2023-04-29T03:44:25.137Z,100545.34
2023-04-29T03:46:52.938Z,100550.31
2023-04-29T03:49:20.665Z,100576.84
2023-04-29T03:51:48.489Z,100576.34
2023-04-29T03:54:16.218Z,100583.19
2023-04-29T03:56:44.419Z,100595.81
2023-04-29T03:59:13.506Z,100592.78
2023-04-29T04:01:41.287Z,100613.09
2023-04-29T04:04:09.159Z,100602.78
2023-04-29T04:06:37.075Z,100612.84
2023-04-29T04:09:04.946Z,100620.06
2023-04-29T04:11:32.661Z,100632.84
2023-04-29T04:14:00.622Z,100627.00
2023-04-29T04:16:29.717Z,100622.53
2023-04-29T04:18:57.445Z,100653.72
2023-04-29T04:21:25.350Z,100666.78
2023-04-29T04:23:53.278Z,100657.88
2023-04-29T04:26:21.632Z,100683.31
2023-04-29T04:28:49.527Z,100694.72
2023-04-29T04:31:17.332Z,100695.47
2023-04-29T04:33:46.448Z,100682.91
2023-04-29T04:36:14.199Z,100687.22
2023-04-29T04:38:41.918Z,100685.31
2023-04-29T04:41:09.698Z,100655.25
2023-04-29T04:43:37.467Z,100655.69
2023-04-29T04:46:11.799Z,100673.50
2023-04-29T04:48:39.636Z,100665.66
2023-04-29T04:51:11.934Z,100699.09
2023-04-29T04:53:40.389Z,100687.53
2023-04-29T04:56:08.821Z,100672.31
2023-04-29T04:58:36.596Z,100725.38
2023-04-29T05:01:04.421Z,100730.13
2023-04-29T05:03:32.417Z,100740.09
2023-04-29T05:06:01.441Z,100728.63
2023-04-29T05:08:30.547Z,100728.72
2023-04-29T05:10:58.638Z,100728.16
2023-04-29T05:13:26.866Z,100727.75
2023-04-29T05:15:54.620Z,100716.13
2023-04-29T05:18:22.384Z,100647.38
2023-04-29T05:20:50.135Z,100645.34
2023-04-29T05:23:17.953Z,100658.63
2023-04-29T05:25:47.092Z,100655.56
2023-04-29T05:28:14.863Z,100651.91
2023-04-29T05:30:43.846Z,100656.97
2023-04-29T05:33:12.066Z,100656.91
2023-04-29T05:35:39.844Z,100666.41
2023-04-29T05:38:07.568Z,100659.34
2023-04-29T05:40:35.373Z,100679.28
2023-04-29T05:43:04.492Z,100676.03
2023-04-29T05:45:32.206Z,100693.75
2023-04-29T05:47:59.969Z,100690.72
2023-04-29T05:50:27.733Z,100641.66
2023-04-29T05:52:56.737Z,100663.28
2023-04-29T05:55:25.063Z,100666.66
2023-04-29T05:57:52.802Z,100719.66
2023-04-29T06:00:22.273Z,100733.06
2023-04-29T06:02:58.034Z,100778.47
2023-04-29T06:05:27.918Z,100793.03
2023-04-29T06:07:56.040Z,100845.53
2023-04-29T06:10:23.795Z,100854.44
2023-04-29T06:12:51.914Z,100833.53
2023-04-29T06:15:21.087Z,100820.50
2023-04-29T06:17:49.583Z,100808.22
2023-04-29T06:20:18.258Z,100804.16
2023-04-29T06:22:46.296Z,100800.38
2023-04-29T06:25:14.186Z,100874.84
2023-04-29T06:27:42.073Z,100909.41
2023-04-29T06:30:11.542Z,100922.56
2023-04-29T06:32:41.222Z,100924.06
2023-04-29T06:35:09.754Z,100940.47
2023-04-29T06:37:38.254Z,100962.88
2023-04-29T06:40:07.525Z,100923.38
2023-04-29T06:42:35.280Z,100982.91
2023-04-29T06:45:03.350Z,100970.63
2023-04-29T06:47:31.110Z,100907.88
2023-04-29T06:50:00.214Z,100871.13
2023-04-29T06:52:27.946Z,100796.06
2023-04-29T06:54:55.666Z,100792.31
2023-04-29T06:57:23.405Z,100833.97
2023-04-29T06:59:51.484Z,100833.94
2023-04-29T07:02:19.496Z,100853.94
2023-04-29T07:04:49.057Z,100879.13
2023-04-29T07:07:18.247Z,100885.41
2023-04-29T07:09:46.046Z,100905.94
2023-04-29T07:12:13.771Z,100933.16
2023-04-29T07:14:41.961Z,100968.13
2023-04-29T07:17:10.945Z,100966.66
2023-04-29T07:19:40.505Z,100968.56
2023-04-29T07:22:08.240Z,101007.72
2023-04-29T07:24:37.304Z,101072.34
2023-04-29T07:27:05.354Z,101048.72
2023-04-29T07:29:34.168Z,101015.03
2023-04-29T07:32:01.898Z,100973.00
2023-04-29T07:34:29.636Z,101034.16
2023-04-29T07:36:57.416Z,101091.59
2023-04-29T07:39:25.469Z,101104.47
2023-04-29T07:41:54.532Z,101137.38
2023-04-29T07:44:22.434Z,101147.78
2023-04-29T07:46:50.164Z,101154.03
2023-04-29T07:49:17.894Z,101157.38
2023-04-29T07:51:45.780Z,101169.88
2023-04-29T07:54:13.527Z,101191.03
2023-04-29T07:56:41.249Z,101171.38
2023-04-29T07:59:10.323Z,101172.47
2023-04-29T08:01:38.515Z,101168.50
2023-04-29T08:04:07.566Z,101199.88
2023-04-29T08:06:36.127Z,101187.31
2023-04-29T08:09:04.287Z,101191.66
2023-04-29T08:11:32.078Z,101182.91
2023-04-29T08:14:00.256Z,101169.66
2023-04-29T08:16:29.597Z,101160.66
2023-04-29T08:18:57.436Z,101190.78
2023-04-29T08:21:25.424Z,101211.88
2023-04-29T08:23:53.520Z,101230.47
2023-04-29T08:26:24.023Z,101229.63
2023-04-29T08:28:51.883Z,101202.69
2023-04-29T08:31:19.775Z,101233.31
2023-04-29T08:33:49.272Z,101225.44
2023-04-29T08:36:17.029Z,101240.97
2023-04-29T08:38:44.771Z,101243.47
2023-04-29T08:41:15.323Z,101247.25
2023-04-29T08:43:43.128Z,101261.53
2023-04-29T08:46:11.899Z,101288.56
2023-04-29T08:48:44.212Z,101327.25
2023-04-29T08:51:15.329Z,101340.19
2023-04-29T08:53:43.091Z,101342.00
2023-04-29T08:56:17.066Z,101334.53
2023-04-29T08:58:46.528Z,101348.28
2023-04-29T09:01:15.406Z,101317.38
2023-04-29T09:03:51.178Z,101297.72
2023-04-29T09:06:21.529Z,101331.56
2023-04-29T09:08:49.562Z,101366.19
2023-04-29T09:11:17.768Z,101351.94
2023-04-29T09:13:45.618Z,101366.88
2023-04-29T09:16:13.991Z,101391.06
2023-04-29T09:18:46.774Z,101411.06
2023-04-29T09:21:16.089Z,101409.66
2023-04-29T09:23:45.782Z,101429.50
2023-04-29T09:26:13.689Z,101433.22
2023-04-29T09:28:43.758Z,101432.44
2023-04-29T09:31:12.657Z,101446.06
2023-04-29T09:33:54.599Z,101444.25
2023-04-29T09:36:41.562Z,101445.06
2023-04-29T09:39:15.155Z,101450.13
2023-04-29T09:41:57.917Z,101449.53
2023-04-29T09:44:26.858Z,101444.97
2023-04-29T09:46:58.344Z,101457.31
2023-04-29T09:49:28.337Z,101460.03
2023-04-29T09:51:57.929Z,101473.75
2023-04-29T09:54:29.533Z,101469.06
2023-04-29T09:56:59.068Z,101451.38
2023-04-29T09:59:27.430Z,101455.19
2023-04-29T10:01:56.820Z,101464.44
2023-04-29T10:04:26.978Z,101459.94
2023-04-29T10:06:56.522Z,101460.09
2023-04-29T10:09:24.998Z,101471.81
2023-04-29T10:11:55.044Z,101469.47
2023-04-29T10:14:24.813Z,101478.84
2023-04-29T10:17:00.516Z,101476.25
2023-04-29T10:19:36.216Z,101481.59
2023-04-29T10:22:11.044Z,101476.59
2023-04-29T10:24:40.104Z,101485.25
2023-04-29T10:27:12.382Z,101483.66
2023-04-29T10:29:41.526Z,101486.22
2023-04-29T10:32:10.969Z,101482.72
2023-04-29T10:34:40.687Z,101486.97
2023-04-29T10:37:10.994Z,101492.00
2023-04-29T10:39:46.933Z,101484.66
2023-04-29T10:42:31.840Z,101482.09
2023-04-29T10:45:18.572Z,101490.72
2023-04-29T10:48:11.874Z,101498.41
2023-04-29T10:51:04.397Z,101479.59
2023-04-29T10:53:32.401Z,101486.50
2023-04-29T10:56:05.610Z,101492.34
2023-04-29T10:58:47.606Z,101483.03
2023-04-29T11:01:16.949Z,101480.53
2023-04-29T11:03:55.538Z,101489.75
2023-04-29T11:06:25.075Z,101482.38
2023-04-29T11:09:03.582Z,101494.34
2023-04-29T11:12:05.728Z,101488.41
2023-04-29T11:14:39.845Z,101493.94
2023-04-29T11:17:10.848Z,101489.59
2023-04-29T11:19:42.816Z,101484.69
2023-04-29T11:22:13.909Z,101490.66
2023-04-29T11:24:56.996Z,101491.00
2023-04-29T11:27:26.496Z,101484.78
2023-04-29T11:29:58.696Z,101494.13
2023-04-29T11:32:27.394Z,101494.88
2023-04-29T11:34:55.786Z,101509.03
2023-04-29T11:37:26.396Z,101508.41
2023-04-29T11:40:00.543Z,101512.06
2023-04-29T11:42:28.766Z,101514.75
2023-04-29T11:44:59.505Z,101501.88
2023-04-29T11:47:29.324Z,101489.13
2023-04-29T11:50:04.929Z,101492.66
2023-04-29T11:52:33.193Z,101500.56
2023-04-29T11:55:01.089Z,101512.44
2023-04-29T11:57:28.918Z,101496.84
2023-04-29T11:59:58.494Z,101497.50
2023-04-29T12:02:30.815Z,101498.22
2023-04-29T12:05:01.224Z,101490.72
2023-04-29T12:07:29.348Z,101494.44
2023-04-29T12:09:57.891Z,101496.84
2023-04-29T12:12:27.576Z,101502.38
2023-04-29T12:14:56.067Z,101512.34
2023-04-29T12:17:25.701Z,101506.56
2023-04-29T12:19:53.550Z,101513.84
2023-04-29T12:22:21.745Z,101511.00
2023-04-29T12:24:50.853Z,101520.16
2023-04-29T12:27:19.042Z,101521.28
2023-04-29T12:29:47.867Z,101516.31
2023-04-29T12:32:18.491Z,101516.19
2023-04-29T12:34:47.937Z,101515.38
2023-04-29T12:37:16.394Z,101512.88
2023-04-29T12:39:44.124Z,101523.69
2023-04-29T12:42:16.898Z,101512.69
2023-04-29T12:44:47.512Z,101511.25
2023-04-29T12:47:16.322Z,101523.91
2023-04-29T12:49:44.791Z,101513.13
2023-04-29T12:52:14.275Z,101527.50
2023-04-29T12:54:43.807Z,101533.16
2023-04-29T12:57:12.870Z,101531.69
2023-04-29T12:59:41.258Z,101530.88
2023-04-29T13:02:09.472Z,101529.94
2023-04-29T13:04:38.106Z,101523.53
2023-04-29T13:07:07.268Z,101529.78
2023-04-29T13:09:38.129Z,101530.84
2023-04-29T13:12:09.573Z,101528.59
2023-04-29T13:14:37.452Z,101534.16
2023-04-29T13:17:05.235Z,101528.22
2023-04-29T13:19:48.204Z,101527.50
2023-04-29T13:22:19.092Z,101553.53
2023-04-29T13:24:48.370Z,101532.72
2023-04-29T13:27:16.138Z,101543.25
2023-04-29T13:29:43.950Z,101552.25
2023-04-29T13:32:11.997Z,101560.22
2023-04-29T13:34:43.148Z,101546.41
2023-04-29T13:37:11.006Z,101537.06
2023-04-29T13:39:38.983Z,101554.47
2023-04-29T13:42:08.979Z,101548.59
2023-04-29T13:44:50.893Z,101550.50
2023-04-29T13:47:25.748Z,101541.97
2023-04-29T13:50:33.966Z,101538.53
2023-04-29T13:58:28.926Z,101539.28
2023-04-29T14:01:05.274Z,101541.69
2023-04-29T14:03:20.783Z,101525.56
2023-04-29T14:05:48.676Z,101535.97
2023-04-29T14:08:16.477Z,101541.09
2023-04-29T14:10:44.229Z,101538.00
2023-04-29T14:13:13.446Z,101538.00
2023-04-29T14:15:41.248Z,101551.31
2023-04-29T14:18:09.844Z,101547.34
2023-04-29T14:20:37.573Z,101542.31
2023-04-29T14:23:05.286Z,101551.41
2023-04-29T14:25:33.959Z,101562.19
2023-04-29T14:28:01.838Z,101544.28
2023-04-29T14:30:31.221Z,101555.31
2023-04-29T14:32:59.054Z,101545.75
2023-04-29T14:35:26.785Z,101541.22
2023-04-29T14:37:54.502Z,101540.69
2023-04-29T14:40:22.408Z,101546.16
2023-04-29T14:42:51.206Z,101555.56
2023-04-29T14:45:18.952Z,101561.50
2023-04-29T14:47:48.160Z,101552.13
2023-04-29T14:50:16.241Z,101560.22
2023-04-29T14:52:43.957Z,101547.81
2023-04-29T14:55:11.742Z,101555.97
2023-04-29T14:57:39.466Z,101552.09
2023-04-29T15:00:08.784Z,101562.16
2023-04-29T15:02:36.590Z,101553.09
2023-04-29T15:05:06.145Z,101561.38
2023-04-29T15:07:33.955Z,101558.91
2023-04-29T15:10:01.840Z,101553.63
2023-04-29T15:12:29.592Z,101571.91
2023-04-29T15:14:57.335Z,101555.34
2023-04-29T15:17:25.564Z,101564.97
2023-04-29T15:19:53.381Z,101561.44
2023-04-29T15:22:22.494Z,101557.63
2023-04-29T15:24:52.131Z,101559.38
2023-04-29T15:27:19.889Z,101552.53
2023-04-29T15:29:47.913Z,101557.50
2023-04-29T15:32:16.050Z,101554.47
2023-04-29T15:34:43.860Z,101565.28
2023-04-29T15:37:11.558Z,101573.94
2023-04-29T15:39:40.820Z,101576.66
2023-04-29T15:42:09.536Z,101585.91
2023-04-29T15:44:37.269Z,101572.09
2023-04-29T15:47:04.983Z,101576.59
2023-04-29T15:49:32.827Z,101592.13
2023-04-29T15:52:01.012Z,101590.94
2023-04-29T15:54:28.731Z,101575.38
2023-04-29T15:56:58.588Z,101591.59
2023-04-29T15:59:26.447Z,101595.72
2023-04-29T16:01:54.204Z,101603.81
2023-04-29T16:04:22.051Z,101605.81
2023-04-29T16:06:49.875Z,101613.38
2023-04-29T16:09:17.579Z,101601.25
2023-04-29T16:11:45.856Z,101600.66
2023-04-29T16:14:14.964Z,101599.19
2023-04-29T16:16:42.816Z,101614.53
2023-04-29T16:19:10.586Z,101605.00
2023-04-29T16:21:38.753Z,101598.44
2023-04-29T16:24:07.830Z,101593.13
2023-04-29T16:26:36.873Z,101611.44
2023-04-29T16:29:04.963Z,101604.81
2023-04-29T16:31:34.201Z,101610.97
2023-04-29T16:34:03.204Z,101612.50
2023-04-29T16:36:31.132Z,101606.50
2023-04-29T16:38:59.074Z,101605.31
2023-04-29T16:41:27.118Z,101615.69
2023-04-29T16:43:54.863Z,101608.00
2023-04-29T16:46:22.761Z,101611.19
2023-04-29T16:48:56.573Z,101610.31
2023-04-29T16:51:26.295Z,101615.56
2023-04-29T16:53:54.257Z,101606.44
2023-04-29T16:56:22.733Z,101627.41
2023-04-29T16:58:50.522Z,101636.44
2023-04-29T17:01:19.694Z,101626.78
2023-04-29T17:03:48.136Z,101631.06
2023-04-29T17:06:17.436Z,101627.84
2023-04-29T17:08:45.720Z,101642.81
2023-04-29T17:11:13.704Z,101644.94
2023-04-29T17:13:41.473Z,101646.72
2023-04-29T17:16:09.433Z,101658.16
2023-04-29T17:18:37.645Z,101636.66
2023-04-29T17:21:05.828Z,101669.00
2023-04-29T17:23:34.951Z,101646.66
2023-04-29T17:26:03.079Z,101650.38
2023-04-29T17:28:30.839Z,101655.19
2023-04-29T17:31:01.087Z,101646.78
2023-04-29T17:33:34.065Z,101661.56
2023-04-29T17:36:02.273Z,101667.78
2023-04-29T17:38:30.231Z,101666.03
2023-04-29T17:40:59.341Z,101657.84
2023-04-29T17:43:27.300Z,101683.97
2023-04-29T17:45:55.134Z,101675.91
2023-04-29T17:48:22.913Z,101680.59
2023-04-29T17:50:50.669Z,101686.28
2023-04-29T17:53:18.394Z,101685.13
2023-04-29T17:55:46.233Z,101678.19
2023-04-29T17:58:15.366Z,101676.63
2023-04-29T18:00:43.137Z,101681.88
2023-04-29T18:03:10.979Z,101691.69
2023-04-29T18:05:38.847Z,101698.34
2023-04-29T18:08:06.771Z,101699.34
2023-04-29T18:10:34.463Z,101702.00
2023-04-29T18:13:03.283Z,101694.94
2023-04-29T18:15:32.516Z,101690.66
2023-04-29T18:18:00.278Z,101691.50
2023-04-29T18:20:28.069Z,101711.72
2023-04-29T18:22:55.945Z,101700.19
2023-04-29T18:25:23.720Z,101707.59
2023-04-29T18:27:56.963Z,101709.25
2023-04-29T18:30:27.900Z,101717.72
2023-04-29T18:32:57.203Z,101727.44
2023-04-29T18:35:25.191Z,101720.28
2023-04-29T18:37:52.941Z,101729.72
2023-04-29T18:40:20.781Z,101716.94
2023-04-29T18:42:48.900Z,101720.81
2023-04-29T18:45:16.639Z,101716.72
2023-04-29T18:47:44.416Z,101726.34
2023-04-29T18:50:14.095Z,101718.34
2023-04-29T18:52:42.600Z,101725.19
2023-04-29T18:55:11.071Z,101736.09
2023-04-29T18:57:38.813Z,101741.75
2023-04-29T19:00:08.586Z,101744.59
2023-04-29T19:02:37.294Z,101736.19
2023-04-29T19:05:09.241Z,101737.81
2023-04-29T19:07:38.826Z,101745.06
2023-04-29T19:10:07.642Z,101749.38
2023-04-29T19:12:35.452Z,101750.78
2023-04-29T19:15:03.176Z,101752.03
2023-04-29T19:17:30.938Z,101749.38
2023-04-29T19:19:58.661Z,101762.22
2023-04-29T19:22:27.706Z,101761.31
2023-04-29T19:24:56.846Z,101772.56
2023-04-29T19:27:24.629Z,101774.44
2023-04-29T19:29:52.513Z,101790.81
2023-04-29T19:32:20.830Z,101787.09
2023-04-29T19:34:49.020Z,101798.75
2023-04-29T19:37:16.784Z,101801.72
2023-04-29T19:39:44.537Z,101786.03
2023-04-29T19:42:13.676Z,101796.94
2023-04-29T19:44:41.432Z,101807.91
2023-04-29T19:47:09.179Z,101802.31
2023-04-29T19:49:37.795Z,101804.75
2023-04-29T19:52:06.800Z,101802.84
2023-04-29T19:54:34.975Z,101802.41
2023-04-29T19:57:03.140Z,101803.16
2023-04-29T19:59:32.227Z,101818.16
2023-04-29T20:02:00.025Z,101828.94
2023-04-29T20:04:27.802Z,101824.84
2023-04-29T20:06:55.572Z,101817.44
2023-04-29T20:09:23.298Z,101821.75
2023-04-29T20:11:51.078Z,101819.25
2023-04-29T20:14:18.802Z,101830.03
2023-04-29T20:16:48.031Z,101827.00
2023-04-29T20:19:15.852Z,101834.63
2023-04-29T20:21:43.604Z,101824.88
2023-04-29T20:24:11.320Z,101824.56
2023-04-29T20:26:39.060Z,101833.84
2023-04-29T20:29:06.812Z,101818.25
2023-04-29T20:31:34.611Z,101833.34
2023-04-29T20:34:03.743Z,101837.78
2023-04-29T20:36:31.897Z,101846.03
2023-04-29T20:38:59.623Z,101839.69
2023-04-29T20:41:29.060Z,101853.66
2023-04-29T20:43:58.559Z,101864.38
2023-04-29T20:46:26.386Z,101855.16
2023-04-29T20:48:54.129Z,101852.09
2023-04-29T20:51:23.229Z,101865.47
2023-04-29T20:53:51.151Z,101859.69
2023-04-29T20:56:18.919Z,101860.13
2023-04-29T20:58:46.651Z,101864.03
2023-04-29T21:01:14.544Z,101869.88
2023-04-29T21:03:42.289Z,101873.03
2023-04-29T21:06:10.041Z,101874.72
2023-04-29T21:08:39.230Z,101868.00
2023-04-29T21:11:07.803Z,101887.06
2023-04-29T21:13:36.233Z,101881.66
2023-04-29T21:16:04.353Z,101889.72
2023-04-29T21:18:32.104Z,101885.22
2023-04-29T21:20:59.819Z,101887.63
2023-04-29T21:23:27.550Z,101900.41
2023-04-29T21:25:56.664Z,101902.03
2023-04-29T21:28:24.412Z,101899.78
2023-04-29T21:30:52.153Z,101898.75
2023-04-29T21:33:19.973Z,101889.00
2023-04-29T21:35:51.284Z,101884.31
2023-04-29T21:38:19.055Z,101881.63
2023-04-29T21:40:48.499Z,101883.78
2023-04-29T21:43:18.535Z,101887.03
2023-04-29T21:45:46.698Z,101904.34
2023-04-29T21:48:15.996Z,101901.81
2023-04-29T21:50:44.624Z,101921.16
2023-04-29T21:53:15.808Z,101904.44
2023-04-29T21:55:44.281Z,101902.19
2023-04-29T21:58:12.102Z,101910.47
2023-04-29T22:00:47.971Z,101907.66
2023-04-29T22:03:16.115Z,101910.75
2023-04-29T22:05:44.007Z,101905.47
2023-04-29T22:08:11.754Z,101911.19
2023-04-29T22:10:41.426Z,101901.69
2023-04-29T22:13:09.296Z,101887.72
2023-04-29T22:15:37.239Z,101888.81
2023-04-29T22:18:06.757Z,101885.94
2023-04-29T22:20:34.584Z,101891.38
2023-04-29T22:23:02.304Z,101900.34
2023-04-29T22:25:30.099Z,101910.88
2023-04-29T22:27:57.842Z,101912.91
2023-04-29T22:30:25.592Z,101915.13
2023-04-29T22:32:53.360Z,101903.59
2023-04-29T22:35:22.732Z,101905.53
2023-04-29T22:37:50.494Z,101914.81
2023-04-29T22:40:18.464Z,101933.13
2023-04-29T22:42:46.350Z,101919.56
2023-04-29T22:45:14.077Z,101922.00
2023-04-29T22:47:43.122Z,101917.56
2023-04-29T22:50:11.641Z,101926.56
2023-04-29T22:52:41.116Z,101907.94
2023-04-29T22:55:09.707Z,101921.03
2023-04-29T22:57:37.502Z,101936.78
2023-04-29T23:00:07.137Z,101947.75
2023-04-29T23:02:34.926Z,101957.56
2023-04-29T23:05:03.560Z,101968.69
2023-04-29T23:07:31.427Z,101984.00
2023-04-29T23:10:00.561Z,101982.41
2023-04-29T23:12:28.324Z,101989.66
2023-04-29T23:14:56.600Z,101988.44
2023-04-29T23:17:24.439Z,101986.91
2023-04-29T23:19:52.547Z,101969.13
2023-04-29T23:22:20.531Z,101985.91
2023-04-29T23:24:48.757Z,101979.53
2023-04-29T23:27:17.871Z,101982.63
2023-04-29T23:29:45.571Z,101983.84
2023-04-29T23:32:13.272Z,101987.31
2023-04-29T23:34:41.018Z,101994.91
2023-04-29T23:37:09.043Z,101990.09
2023-04-29T23:39:36.754Z,101993.84
2023-04-29T23:42:04.523Z,101992.25
2023-04-29T23:44:33.859Z,101996.50
2023-04-29T23:47:01.596Z,102005.22
2023-04-29T23:49:29.561Z,102001.13
2023-04-29T23:51:57.339Z,101999.94
2023-04-29T23:54:25.110Z,102003.00
2023-04-29T23:56:52.836Z,102001.44
2023-04-29T23:59:20.608Z,102005.16
